タシュケント の空港の天気 - METARとTAF

タシケント空港 ( UTTT / TAS ) - ウズベキスタン タシュケント
飛行場実況気象(Metar)
観測時間02/28 05:30 +05 (02/28 00:30 UTC)
風向・風速静穏 0m/s
視程10km以上
天気現象
なし
気温3℃
湿度56%
気圧1022hPa
METARUTTT 280030Z 00000KT CAVOK 03/M05 Q1022 R26R/CLRD70 NOSIG
過去の天気等 Google飛行場航空写真 Wunderground天気予報

過去48時間のMETAR

飛行場予報(TAF)
発表時間: 2/28 04:00 +05 (2/27 23:00 UTC)
予報対象時間: 28日5時 +05 ~ 1日5時 +05
風向・風速東 6m/s
視程7,000m
なし
28日5時 +05 ~ 28日11時 +05 に一時的に
視程500m
天気現象
全天の4割程度の雲 雲底高度 60m
TAF UTTT 272300Z 2800/2824 08012KT 7000 NSC
TEMPO 2800/2806 0500 FG SCT002